createdAt,value
2023-11-08T00:01:42.460Z,10.40
2023-11-08T00:04:09.501Z,10.30
2023-11-08T00:06:36.735Z,10.30
2023-11-08T00:09:03.790Z,10.40
2023-11-08T00:11:31.808Z,10.30
2023-11-08T00:13:59.065Z,10.30
2023-11-08T00:16:25.927Z,10.40
2023-11-08T00:18:52.796Z,10.30
2023-11-08T00:21:19.963Z,10.30
2023-11-08T00:23:46.850Z,10.20
2023-11-08T00:26:13.833Z,10.20
2023-11-08T00:28:40.674Z,10.30
2023-11-08T00:31:08.403Z,10.20
2023-11-08T00:33:35.764Z,10.20
2023-11-08T00:36:03.186Z,10.30
2023-11-08T00:38:30.485Z,10.30
2023-11-08T00:40:57.526Z,10.30
2023-11-08T00:43:25.078Z,10.40
2023-11-08T00:45:54.830Z,10.40
2023-11-08T00:48:24.979Z,10.30
2023-11-08T00:50:55.931Z,10.20
2023-11-08T00:53:23.571Z,10.10
2023-11-08T00:55:51.129Z,10.20
2023-11-08T00:58:28.224Z,10.20
2023-11-08T01:00:55.305Z,10.30
2023-11-08T01:03:25.873Z,10.20
2023-11-08T01:05:53.123Z,10.20
2023-11-08T01:08:20.173Z,10.10
2023-11-08T01:10:47.887Z,10.10
2023-11-08T01:13:15.037Z,10.10
2023-11-08T01:15:42.231Z,10.20
2023-11-08T01:18:09.647Z,10.20
2023-11-08T01:20:37.234Z,10.20
2023-11-08T01:23:07.169Z,10.10
2023-11-08T01:25:34.092Z,10.10
2023-11-08T01:28:04.445Z,10.10
2023-11-08T01:30:31.618Z,10.20
2023-11-08T01:32:58.883Z,10.20
2023-11-08T01:35:25.884Z,10.10
2023-11-08T01:37:52.740Z,10.10
2023-11-08T01:40:22.197Z,10.00
2023-11-08T01:42:49.446Z,10.10
2023-11-08T01:45:16.957Z,10.10
2023-11-08T01:47:44.231Z,10.20
2023-11-08T01:50:11.661Z,10.20
2023-11-08T01:52:39.178Z,10.20
2023-11-08T01:55:08.097Z,10.10
2023-11-08T01:57:35.683Z,10.10
2023-11-08T02:00:05.734Z,10.10
2023-11-08T02:02:33.373Z,10.10
2023-11-08T02:05:00.638Z,10.10
2023-11-08T02:07:27.637Z,9.90
2023-11-08T02:09:54.673Z,9.80
2023-11-08T02:12:23.870Z,9.70
2023-11-08T02:15:07.437Z,9.80
2023-11-08T02:17:38.254Z,9.80
2023-11-08T02:20:12.101Z,10.00
2023-11-08T02:22:39.197Z,10.00
2023-11-08T02:25:07.855Z,10.10
2023-11-08T02:27:34.871Z,10.20
2023-11-08T02:30:01.710Z,10.10
2023-11-08T02:32:28.955Z,10.10
2023-11-08T02:34:55.914Z,10.30
2023-11-08T02:37:23.095Z,10.20
2023-11-08T02:39:50.619Z,10.30
2023-11-08T02:42:21.136Z,10.30
2023-11-08T02:44:48.291Z,10.30
2023-11-08T02:47:16.213Z,10.40
2023-11-08T02:49:43.776Z,10.50
2023-11-08T02:52:10.789Z,10.40
2023-11-08T02:54:38.306Z,10.40
2023-11-08T02:57:05.541Z,10.30
2023-11-08T02:59:32.602Z,10.40
2023-11-08T03:02:00.322Z,10.40
2023-11-08T03:04:27.789Z,10.30
2023-11-08T03:06:54.718Z,10.40
2023-11-08T03:09:22.052Z,10.50
2023-11-08T03:11:51.357Z,10.50
2023-11-08T03:14:18.227Z,10.40
2023-11-08T03:16:45.277Z,10.50
2023-11-08T03:19:12.981Z,10.50
2023-11-08T03:21:45.397Z,10.60
2023-11-08T03:24:12.802Z,10.50
2023-11-08T03:26:42.279Z,10.50
2023-11-08T03:29:15.280Z,10.30
2023-11-08T03:31:44.709Z,10.30
2023-11-08T03:34:12.748Z,10.30
2023-11-08T03:36:41.444Z,10.20
2023-11-08T03:39:12.282Z,10.20
2023-11-08T03:41:39.208Z,10.30
2023-11-08T03:44:09.097Z,10.20
2023-11-08T03:46:38.650Z,10.20
2023-11-08T03:49:06.622Z,10.30
2023-11-08T03:51:34.342Z,10.20
2023-11-08T03:54:02.367Z,10.10
2023-11-08T03:56:31.271Z,10.20
2023-11-08T03:59:01.497Z,10.10
2023-11-08T04:01:30.568Z,10.20
2023-11-08T04:03:58.038Z,10.20
2023-11-08T04:06:25.370Z,10.20
2023-11-08T04:08:54.874Z,10.20
2023-11-08T04:11:22.062Z,10.30
2023-11-08T04:13:50.348Z,10.30
2023-11-08T04:16:17.456Z,10.20
2023-11-08T04:18:45.081Z,10.00
2023-11-08T04:21:12.386Z,10.10
2023-11-08T04:23:39.580Z,10.10
2023-11-08T04:26:09.701Z,10.00
2023-11-08T04:28:43.667Z,10.10
2023-11-08T04:31:11.801Z,10.10
2023-11-08T04:33:39.811Z,10.00
2023-11-08T04:36:10.187Z,10.00
2023-11-08T04:38:37.892Z,9.90
2023-11-08T04:41:04.878Z,9.80
2023-11-08T04:43:32.659Z,9.90
2023-11-08T04:45:59.773Z,9.80
2023-11-08T04:48:27.482Z,9.90
2023-11-08T04:50:54.650Z,10.00
2023-11-08T04:53:21.490Z,9.90
2023-11-08T04:55:48.333Z,9.80
2023-11-08T04:58:15.403Z,9.70
2023-11-08T05:00:42.519Z,9.70
2023-11-08T05:03:11.863Z,9.80
2023-11-08T05:05:41.621Z,9.90
2023-11-08T05:08:09.223Z,9.90
2023-11-08T05:10:36.534Z,9.70
2023-11-08T05:13:03.786Z,9.80
2023-11-08T05:15:31.408Z,9.90
2023-11-08T05:17:59.338Z,9.80
2023-11-08T05:20:27.933Z,9.90
2023-11-08T05:22:56.568Z,9.90
2023-11-08T05:25:23.821Z,10.00
2023-11-08T05:27:51.401Z,10.00
2023-11-08T05:30:18.468Z,10.00
2023-11-08T05:32:45.813Z,9.80
2023-11-08T05:35:14.128Z,9.80
2023-11-08T05:37:43.339Z,9.60
2023-11-08T05:40:16.279Z,9.70
2023-11-08T05:42:43.938Z,9.80
2023-11-08T05:45:11.484Z,9.80
2023-11-08T05:47:39.041Z,9.70
2023-11-08T05:50:11.313Z,9.80
2023-11-08T05:52:38.952Z,9.80
2023-11-08T05:55:06.493Z,9.90
2023-11-08T05:57:34.308Z,9.70
2023-11-08T06:00:09.413Z,9.70
2023-11-08T06:02:37.260Z,9.60
2023-11-08T06:05:07.487Z,9.70
2023-11-08T06:07:34.422Z,9.80
2023-11-08T06:10:02.036Z,9.80
2023-11-08T06:12:29.437Z,9.80
2023-11-08T06:14:56.923Z,9.80
2023-11-08T06:17:24.072Z,9.70
2023-11-08T06:19:51.324Z,9.60
2023-11-08T06:22:18.455Z,9.60
2023-11-08T06:24:45.625Z,9.50
2023-11-08T06:27:13.304Z,9.40
2023-11-08T06:29:41.328Z,9.50
2023-11-08T06:32:09.021Z,9.30
2023-11-08T06:34:36.126Z,9.30
2023-11-08T06:37:03.398Z,9.50
2023-11-08T06:39:30.463Z,9.30
2023-11-08T06:41:58.686Z,9.30
2023-11-08T06:44:26.018Z,9.30
2023-11-08T06:46:53.931Z,9.40
2023-11-08T06:49:21.211Z,9.30
2023-11-08T06:51:48.352Z,9.40
2023-11-08T06:54:15.370Z,9.40
2023-11-08T06:56:45.508Z,9.40
2023-11-08T06:59:12.958Z,9.20
2023-11-08T07:01:40.785Z,9.20
2023-11-08T07:04:09.866Z,9.40
2023-11-08T07:06:37.878Z,9.40
2023-11-08T07:09:04.917Z,9.20
2023-11-08T07:11:31.837Z,9.30
2023-11-08T07:13:59.176Z,9.30
2023-11-08T07:16:27.324Z,9.10
2023-11-08T07:18:55.238Z,9.10
2023-11-08T07:21:23.309Z,9.10
2023-11-08T07:23:50.906Z,9.20
2023-11-08T07:26:18.540Z,9.20
2023-11-08T07:28:46.595Z,9.20
2023-11-08T07:31:15.041Z,9.10
2023-11-08T07:33:46.775Z,9.20
2023-11-08T07:36:14.311Z,9.20
2023-11-08T07:38:42.165Z,9.20
2023-11-08T07:41:09.295Z,9.10
2023-11-08T07:43:36.929Z,9.10
2023-11-08T07:46:04.429Z,9.20
2023-11-08T07:48:32.028Z,9.20
2023-11-08T07:51:02.172Z,9.30
2023-11-08T07:53:32.330Z,9.20
2023-11-08T07:56:02.617Z,9.20
2023-11-08T07:58:30.449Z,9.20
2023-11-08T08:00:57.847Z,9.30
2023-11-08T08:03:25.375Z,9.30
2023-11-08T08:05:54.949Z,9.40
2023-11-08T08:08:22.258Z,9.30
2023-11-08T08:10:49.504Z,9.40
2023-11-08T08:13:24.152Z,9.30
2023-11-08T08:15:59.339Z,9.30
2023-11-08T08:18:26.360Z,9.30
2023-11-08T08:20:53.451Z,9.40
2023-11-08T08:23:20.544Z,9.50
2023-11-08T08:25:48.153Z,9.50
2023-11-08T08:28:15.709Z,9.60
2023-11-08T08:30:42.859Z,9.90
2023-11-08T08:33:10.141Z,10.00
2023-11-08T08:35:37.527Z,10.10
2023-11-08T08:38:07.957Z,10.20
2023-11-08T08:40:35.324Z,10.10
2023-11-08T08:43:02.530Z,10.20
2023-11-08T08:45:31.434Z,10.40
2023-11-08T08:48:00.646Z,10.40
2023-11-08T08:50:27.880Z,10.40
2023-11-08T08:52:54.908Z,10.40
2023-11-08T08:55:25.306Z,10.20
2023-11-08T08:57:52.537Z,10.30
2023-11-08T09:00:20.500Z,10.40
2023-11-08T09:02:51.993Z,10.40
2023-11-08T09:05:23.810Z,10.50
2023-11-08T09:07:52.258Z,10.50
2023-11-08T09:10:23.025Z,10.50
2023-11-08T09:12:50.506Z,10.60
2023-11-08T09:15:18.448Z,10.60
2023-11-08T09:17:45.587Z,10.70
2023-11-08T09:20:12.713Z,11.00
2023-11-08T09:22:42.382Z,11.10
2023-11-08T09:25:11.142Z,11.30
2023-11-08T09:27:38.984Z,11.40
2023-11-08T09:30:09.556Z,11.30
2023-11-08T09:32:37.125Z,11.30
2023-11-08T09:35:04.558Z,11.40
2023-11-08T09:37:32.174Z,11.40
2023-11-08T09:40:00.703Z,11.40
2023-11-08T09:42:31.528Z,11.40
2023-11-08T09:45:00.183Z,11.30
2023-11-08T09:47:27.451Z,11.40
2023-11-08T09:49:57.223Z,11.20
2023-11-08T09:52:24.879Z,11.30
2023-11-08T09:54:52.224Z,11.40
2023-11-08T09:57:23.181Z,11.30
2023-11-08T09:59:51.121Z,11.20
2023-11-08T10:02:19.973Z,11.30
2023-11-08T10:04:48.732Z,11.30
2023-11-08T10:07:16.147Z,11.50
2023-11-08T10:09:43.980Z,11.40
2023-11-08T10:12:11.310Z,11.40
2023-11-08T10:14:45.434Z,11.40
2023-11-08T10:17:31.844Z,11.40
2023-11-08T10:20:01.359Z,11.40
2023-11-08T10:22:29.028Z,11.20
2023-11-08T10:24:58.177Z,11.20
2023-11-08T10:27:27.790Z,11.10
2023-11-08T10:30:12.474Z,11.20
2023-11-08T10:32:40.123Z,11.30
2023-11-08T10:35:21.579Z,11.40
2023-11-08T10:37:50.516Z,11.40
2023-11-08T10:40:19.015Z,11.30
2023-11-08T10:42:54.182Z,11.20
2023-11-08T10:45:22.603Z,11.10
2023-11-08T10:47:50.723Z,11.10
2023-11-08T10:50:18.116Z,11.00
2023-11-08T10:52:47.517Z,11.00
2023-11-08T10:55:16.288Z,11.00
2023-11-08T10:57:53.533Z,11.00
2023-11-08T11:00:23.120Z,11.10
2023-11-08T11:03:00.470Z,11.20
2023-11-08T11:05:31.307Z,11.30
2023-11-08T11:08:01.744Z,11.30
2023-11-08T11:10:29.630Z,11.40
2023-11-08T11:13:06.379Z,11.20
2023-11-08T11:16:01.325Z,11.30
2023-11-08T11:18:36.843Z,11.30
2023-11-08T11:21:21.061Z,11.30
2023-11-08T11:23:48.052Z,11.40
2023-11-08T11:26:17.056Z,11.40
2023-11-08T11:28:56.835Z,11.20
2023-11-08T11:31:34.292Z,11.30
2023-11-08T11:34:23.540Z,11.30
2023-11-08T11:37:11.676Z,11.40
2023-11-08T11:39:43.707Z,11.40
2023-11-08T11:42:22.160Z,11.40
2023-11-08T11:45:00.381Z,11.30
2023-11-08T11:47:31.097Z,11.20
2023-11-08T11:50:04.327Z,11.20
2023-11-08T11:52:33.344Z,11.30
2023-11-08T11:55:02.319Z,11.30
2023-11-08T11:57:31.138Z,11.40
2023-11-08T12:00:00.390Z,11.40
2023-11-08T12:02:32.481Z,11.50
2023-11-08T12:05:02.225Z,11.50
2023-11-08T12:07:29.902Z,11.40
2023-11-08T12:09:57.173Z,11.50
2023-11-08T12:12:29.975Z,11.40
2023-11-08T12:15:01.314Z,11.60
2023-11-08T12:17:28.574Z,11.60
2023-11-08T12:19:59.000Z,11.50
2023-11-08T12:22:26.522Z,11.50
2023-11-08T12:24:57.319Z,11.50
2023-11-08T12:27:25.432Z,11.60
2023-11-08T12:29:52.360Z,11.60
2023-11-08T12:32:19.305Z,11.70
2023-11-08T12:34:46.402Z,11.80
2023-11-08T12:37:20.992Z,11.70
2023-11-08T12:39:48.360Z,11.70
2023-11-08T12:42:17.034Z,11.70
2023-11-08T12:44:49.859Z,11.60
2023-11-08T12:47:17.181Z,11.60
2023-11-08T12:49:45.541Z,11.60
2023-11-08T12:52:22.067Z,11.60
2023-11-08T12:54:59.395Z,11.60
2023-11-08T12:57:27.331Z,11.60
2023-11-08T12:59:54.875Z,11.40
2023-11-08T13:02:22.524Z,11.50
2023-11-08T13:04:49.899Z,11.50
2023-11-08T13:07:23.770Z,11.50
2023-11-08T13:09:50.879Z,11.50
2023-11-08T13:12:19.262Z,11.50
2023-11-08T13:14:49.447Z,11.50
2023-11-08T13:17:16.437Z,11.50
2023-11-08T13:19:44.274Z,11.50
2023-11-08T13:22:14.872Z,11.50
2023-11-08T13:24:43.321Z,11.40
2023-11-08T13:27:10.470Z,11.30
2023-11-08T13:29:37.761Z,11.30
2023-11-08T13:32:10.373Z,11.20
2023-11-08T13:34:37.997Z,11.20
2023-11-08T13:37:05.559Z,11.20
2023-11-08T13:39:33.515Z,11.20
2023-11-08T13:42:01.378Z,11.20
2023-11-08T13:44:29.649Z,11.10
2023-11-08T13:46:57.265Z,11.00
2023-11-08T13:49:25.103Z,10.90
2023-11-08T13:51:52.322Z,11.00
2023-11-08T13:54:20.008Z,10.90
2023-11-08T13:56:47.056Z,11.00
2023-11-08T13:59:14.678Z,11.00
2023-11-08T14:01:41.923Z,11.00
2023-11-08T14:04:09.691Z,11.10
2023-11-08T14:06:37.923Z,11.10
2023-11-08T14:09:05.682Z,11.10
2023-11-08T14:11:35.738Z,11.10
2023-11-08T14:14:03.118Z,11.20
2023-11-08T14:16:33.122Z,11.20
2023-11-08T14:19:00.359Z,11.00
2023-11-08T14:21:27.683Z,11.00
2023-11-08T14:23:54.813Z,11.00
2023-11-08T14:26:22.470Z,11.10
2023-11-08T14:28:49.934Z,11.10
2023-11-08T14:31:17.876Z,11.00
2023-11-08T14:33:45.010Z,11.10
2023-11-08T14:36:12.119Z,11.10
2023-11-08T14:38:39.130Z,11.00
2023-11-08T14:41:09.741Z,11.00
2023-11-08T14:43:36.754Z,11.10
2023-11-08T14:46:03.967Z,11.10
2023-11-08T14:48:31.639Z,11.10
2023-11-08T14:51:01.102Z,11.20
2023-11-08T14:53:28.621Z,11.30
2023-11-08T14:55:55.623Z,11.30
2023-11-08T14:58:22.780Z,11.20
2023-11-08T15:00:52.016Z,11.30
2023-11-08T15:03:21.464Z,11.20
2023-11-08T15:05:51.448Z,11.30
2023-11-08T15:09:49.746Z,11.20
2023-11-08T15:11:09.820Z,11.20
2023-11-08T15:13:36.989Z,11.20
2023-11-08T15:16:04.607Z,11.20
2023-11-08T15:18:32.225Z,11.20
2023-11-08T15:20:59.692Z,11.30
2023-11-08T15:23:27.911Z,11.30
2023-11-08T15:25:58.348Z,11.20
2023-11-08T15:28:25.522Z,11.20
2023-11-08T15:30:52.658Z,11.20
2023-11-08T15:33:19.946Z,11.10
2023-11-08T15:35:47.385Z,11.20
2023-11-08T15:38:15.135Z,11.10
2023-11-08T15:40:42.511Z,11.10
2023-11-08T15:43:10.117Z,11.20
2023-11-08T15:45:37.601Z,11.20
2023-11-08T15:48:04.884Z,11.20
2023-11-08T15:50:32.728Z,11.20
2023-11-08T15:52:59.848Z,11.30
2023-11-08T15:55:28.591Z,11.30
2023-11-08T15:57:55.533Z,11.20
2023-11-08T16:00:22.927Z,11.30
2023-11-08T16:02:51.455Z,11.40
2023-11-08T16:05:19.297Z,11.30
2023-11-08T16:07:51.012Z,11.30
2023-11-08T16:10:22.566Z,11.30
2023-11-08T16:12:53.926Z,11.30
2023-11-08T16:15:21.851Z,11.40
2023-11-08T16:17:54.658Z,11.40
2023-11-08T16:20:24.043Z,11.50
2023-11-08T16:23:04.868Z,11.40
2023-11-08T16:25:34.778Z,11.40
2023-11-08T16:28:02.624Z,11.40
2023-11-08T16:30:59.929Z,11.50
2023-11-08T16:33:23.454Z,11.50
2023-11-08T16:35:50.720Z,11.50
2023-11-08T16:38:17.870Z,11.50
2023-11-08T16:40:45.490Z,11.50
2023-11-08T16:43:12.770Z,11.50
2023-11-08T16:45:40.078Z,11.50
2023-11-08T16:48:07.465Z,11.50
2023-11-08T16:50:35.180Z,11.50
2023-11-08T16:53:04.085Z,11.50
2023-11-08T16:55:31.797Z,11.50
2023-11-08T16:57:58.784Z,11.50
2023-11-08T17:00:26.233Z,11.50
2023-11-08T17:02:54.275Z,11.60
2023-11-08T17:05:21.521Z,11.50
2023-11-08T17:07:49.624Z,11.60
2023-11-08T17:10:17.000Z,11.50
2023-11-08T17:12:44.045Z,11.60
2023-11-08T17:15:13.632Z,11.70
2023-11-08T17:17:41.241Z,11.60
2023-11-08T17:20:09.942Z,11.50
2023-11-08T17:22:37.014Z,11.60
2023-11-08T17:25:04.415Z,11.60
2023-11-08T17:27:31.845Z,11.60
2023-11-08T17:29:59.203Z,11.60
2023-11-08T17:32:26.171Z,11.70
2023-11-08T17:34:54.441Z,11.70
2023-11-08T17:37:22.035Z,11.70
2023-11-08T17:39:55.208Z,11.80
2023-11-08T17:42:22.263Z,11.70
2023-11-08T17:44:49.267Z,11.80
2023-11-08T17:47:16.890Z,11.70
2023-11-08T17:49:45.432Z,11.70
2023-11-08T17:52:13.852Z,11.60
2023-11-08T17:54:41.121Z,11.60
2023-11-08T17:57:08.124Z,11.60
2023-11-08T17:59:37.302Z,11.70
2023-11-08T18:02:04.802Z,11.70
2023-11-08T18:04:32.191Z,11.70
2023-11-08T18:07:03.450Z,11.70
2023-11-08T18:09:30.988Z,11.70
2023-11-08T18:11:57.986Z,11.70
2023-11-08T18:14:25.933Z,11.80
2023-11-08T18:16:53.169Z,11.70
2023-11-08T18:19:20.332Z,11.70
2023-11-08T18:21:47.572Z,11.80
2023-11-08T18:24:14.596Z,11.80
2023-11-08T18:26:41.501Z,11.70
2023-11-08T18:29:09.679Z,11.70
2023-11-08T18:31:37.011Z,11.70
2023-11-08T18:34:06.464Z,11.70
2023-11-08T18:36:33.999Z,11.70
2023-11-08T18:39:01.214Z,11.80
2023-11-08T18:41:28.473Z,11.90
2023-11-08T18:43:55.570Z,11.90
2023-11-08T18:46:22.747Z,11.90
2023-11-08T18:48:50.048Z,11.90
2023-11-08T18:51:18.824Z,11.90
2023-11-08T18:53:45.905Z,11.90
2023-11-08T18:56:14.463Z,12.00
2023-11-08T18:58:41.455Z,12.00
2023-11-08T19:01:13.107Z,12.00
2023-11-08T19:03:40.975Z,12.00
2023-11-08T19:06:08.236Z,11.90
2023-11-08T19:08:35.193Z,11.90
2023-11-08T19:11:02.583Z,11.80
2023-11-08T19:13:32.789Z,11.90
2023-11-08T19:16:05.417Z,11.90
2023-11-08T19:18:33.655Z,11.90
2023-11-08T19:21:01.709Z,11.90
2023-11-08T19:23:28.777Z,11.90
2023-11-08T19:25:58.077Z,11.90
2023-11-08T19:28:25.831Z,11.90
2023-11-08T19:30:56.536Z,11.90
2023-11-08T19:33:23.615Z,11.90
2023-11-08T19:35:50.927Z,12.00
2023-11-08T19:38:17.963Z,12.00
2023-11-08T19:40:45.250Z,12.00
2023-11-08T19:43:12.827Z,11.90
2023-11-08T19:45:39.991Z,11.90
2023-11-08T19:48:06.958Z,11.90
2023-11-08T19:50:35.012Z,11.90
2023-11-08T19:53:04.387Z,12.00
2023-11-08T19:55:31.822Z,11.90
2023-11-08T19:57:59.054Z,12.00
2023-11-08T20:00:26.998Z,11.90
2023-11-08T20:02:54.894Z,11.90
2023-11-08T20:05:22.251Z,12.00
2023-11-08T20:07:50.633Z,12.10
2023-11-08T20:10:18.701Z,12.10
2023-11-08T20:12:48.052Z,12.00
2023-11-08T20:15:18.470Z,12.00
2023-11-08T20:17:46.374Z,12.10
2023-11-08T20:20:14.981Z,12.00
2023-11-08T20:22:42.301Z,12.00
2023-11-08T20:25:10.741Z,12.00
2023-11-08T20:27:38.513Z,11.90
2023-11-08T20:30:08.271Z,12.00
2023-11-08T20:32:38.440Z,12.00
2023-11-08T20:35:06.329Z,12.00
2023-11-08T20:37:37.582Z,12.00
2023-11-08T20:40:10.041Z,12.10
2023-11-08T20:42:37.809Z,12.10
2023-11-08T20:45:05.235Z,12.10
2023-11-08T20:47:34.015Z,12.10
2023-11-08T20:50:03.571Z,12.10
2023-11-08T20:52:30.970Z,12.20
2023-11-08T20:54:59.548Z,12.10
2023-11-08T20:57:27.851Z,12.00
2023-11-08T20:59:55.049Z,12.10
2023-11-08T21:02:22.247Z,12.10
2023-11-08T21:04:49.741Z,12.00
2023-11-08T21:07:19.855Z,11.90
2023-11-08T21:09:49.839Z,11.90
2023-11-08T21:12:17.311Z,11.90
2023-11-08T21:14:44.208Z,11.90
2023-11-08T21:17:11.180Z,11.90
2023-11-08T21:19:38.434Z,11.90
2023-11-08T21:22:05.879Z,11.90
2023-11-08T21:24:33.485Z,11.90
2023-11-08T21:27:01.559Z,12.10
2023-11-08T21:29:29.110Z,12.00
2023-11-08T21:31:56.189Z,12.00
2023-11-08T21:34:23.573Z,12.00
2023-11-08T21:36:50.710Z,12.00
2023-11-08T21:39:17.960Z,12.00
2023-11-08T21:41:47.301Z,12.10
2023-11-08T21:44:14.789Z,12.10
2023-11-08T21:46:44.993Z,12.10
2023-11-08T21:49:13.414Z,12.10
2023-11-08T21:51:40.384Z,12.10
2023-11-08T21:54:12.112Z,12.20
2023-11-08T21:56:39.180Z,12.20
2023-11-08T21:59:06.478Z,12.10
2023-11-08T22:01:34.682Z,12.20
2023-11-08T22:04:01.871Z,12.20
2023-11-08T22:06:29.758Z,12.20
2023-11-08T22:08:59.530Z,12.30
2023-11-08T22:11:26.576Z,12.30
2023-11-08T22:13:53.670Z,12.30
2023-11-08T22:16:20.931Z,12.20
2023-11-08T22:18:48.436Z,12.30
2023-11-08T22:21:15.446Z,12.30
2023-11-08T22:23:42.578Z,12.30
2023-11-08T22:26:20.761Z,12.30
2023-11-08T22:28:47.714Z,12.30
2023-11-08T22:31:14.835Z,12.30
2023-11-08T22:33:42.109Z,12.30
2023-11-08T22:36:12.922Z,12.30
2023-11-08T22:38:40.554Z,12.30
2023-11-08T22:41:08.105Z,12.40
2023-11-08T22:43:35.128Z,12.40
2023-11-08T22:46:02.222Z,12.30
2023-11-08T22:48:31.921Z,12.30
2023-11-08T22:50:58.860Z,12.30
2023-11-08T22:53:25.695Z,12.30
2023-11-08T22:55:52.689Z,12.30
2023-11-08T22:58:19.980Z,12.20
2023-11-08T23:00:50.538Z,12.20
2023-11-08T23:03:18.908Z,12.20
2023-11-08T23:05:46.693Z,12.10
2023-11-08T23:08:14.038Z,12.10
2023-11-08T23:10:41.202Z,12.20
2023-11-08T23:13:08.469Z,12.10
2023-11-08T23:15:37.742Z,12.00
2023-11-08T23:18:05.882Z,12.10
2023-11-08T23:20:33.409Z,12.10
2023-11-08T23:23:00.892Z,12.20
2023-11-08T23:25:27.996Z,12.10
2023-11-08T23:27:55.199Z,12.10
2023-11-08T23:30:22.284Z,12.00
2023-11-08T23:32:49.220Z,12.00
2023-11-08T23:35:17.434Z,12.10
2023-11-08T23:37:51.409Z,12.10
2023-11-08T23:40:23.209Z,12.10
2023-11-08T23:42:50.908Z,12.10
2023-11-08T23:45:18.033Z,12.20
2023-11-08T23:47:45.190Z,12.30
2023-11-08T23:50:13.409Z,12.20
2023-11-08T23:52:40.346Z,12.20
2023-11-08T23:55:08.019Z,12.20
2023-11-08T23:57:35.118Z,12.20
